Time;durP1;ratioP1;P1;durP2;ratioP2;P2;SDS_P1;SDS_P2;PMS_P1;PMS_P2;Temp;Humidity;BMP_temperature;BMP_pressure;BME280_temperature;BME280_humidity;BME280_pressure;Samples;Min_cycle;Max_cycle;Signal;HPM_P1;HPM_P2
2022/06/06 00:00:10;;;;;;;;;;;;;;;18.13;49.92;99284.97;1715406;83;20110;-48
2022/06/06 00:02:36;;;;;;;;;;;;;;;18.12;50.14;99287.77;1712421;83;20109;-54
2022/06/06 00:05:03;;;;;;;;;;;;;;;18.10;50.07;99287.92;1706988;83;20121;-47
2022/06/06 00:07:28;;;;;;;;;;;;;;;18.09;50.77;99298.70;1705706;83;20439;-50
2022/06/06 00:09:54;;;;;;;;;;;;;;;18.05;50.35;99307.43;1697462;83;20180;-47
2022/06/06 00:12:20;;;;;;;;;;;;;;;18.00;50.96;99299.00;1711464;83;20105;-45
2022/06/06 00:14:46;;;;;;;;;;;;;;;18.00;51.36;99296.33;1718286;83;20113;-50
2022/06/06 00:17:13;;;;;;;;;;;;;;;17.98;51.96;99294.30;1701286;83;20533;-51
2022/06/06 00:19:39;;;;;;;;;;;;;;;17.94;52.03;99286.23;1717322;83;20496;-50
2022/06/06 00:22:05;;;;;;;;;;;;;;;17.90;52.32;99279.00;1718490;83;20117;-48
2022/06/06 00:24:30;;;;;;;;;;;;;;;17.88;52.64;99278.27;1706704;83;20410;-49
2022/06/06 00:26:56;;;;;;;;;;;;;;;17.84;52.64;99279.02;1698824;83;20549;-51
2022/06/06 00:29:22;;;;;;;;;;;;;;;17.82;52.28;99277.44;1701739;83;20109;-53
2022/06/06 00:37:20;;;;;;;;;;;;;;;17.71;52.31;99290.33;1705144;83;20112;-50
2022/06/06 00:39:46;;;;;;;;;;;;;;;17.68;53.11;99299.05;1711693;83;20141;-45
2022/06/06 00:42:15;;;;;;;;;;;;;;;17.63;54.02;99302.95;1716285;83;20184;-48
2022/06/06 00:44:41;;;;;;;;;;;;;;;17.61;54.41;99298.25;1709901;83;20121;-43
2022/06/06 00:47:16;;;;;;;;;;;;;;;17.61;53.98;99292.93;1701532;83;20117;-50
2022/06/06 00:49:45;;;;;;;;;;;;;;;17.60;54.96;99295.22;1699390;83;20101;-50
2022/06/06 00:52:20;;;;;;;;;;;;;;;17.58;55.16;99297.66;1706620;83;20117;-50
2022/06/06 00:54:46;;;;;;;;;;;;;;;17.57;54.51;99302.15;1704181;83;20176;-51
2022/06/06 00:57:15;;;;;;;;;;;;;;;17.52;54.30;99304.34;1716206;83;20141;-51
2022/06/06 00:59:41;;;;;;;;;;;;;;;17.49;55.09;99295.28;1708834;83;20117;-44
2022/06/06 01:02:09;;;;;;;;;;;;;;;17.45;55.24;99304.50;1708022;83;20117;-47
2022/06/06 01:04:35;;;;;;;;;;;;;;;17.41;56.54;99309.72;1703684;83;20141;-51
2022/06/06 01:07:00;;;;;;;;;;;;;;;17.37;55.49;99302.48;1698880;83;20109;-53
2022/06/06 01:09:27;;;;;;;;;;;;;;;17.32;56.15;99293.19;1709958;83;20117;-52
2022/06/06 01:11:56;;;;;;;;;;;;;;;17.27;56.43;99285.12;1704596;83;20150;-45
2022/06/06 01:14:24;;;;;;;;;;;;;;;17.24;56.43;99280.05;1714423;83;20133;-55
2022/06/06 01:17:11;;;;;;;;;;;;;;;17.22;56.49;99273.19;1694295;84;20141;-46
2022/06/06 01:19:46;;;;;;;;;;;;;;;17.18;56.57;99277.08;1709033;83;20466;-49
2022/06/06 01:22:33;;;;;;;;;;;;;;;17.12;56.83;99270.46;1702184;83;20971;-50
2022/06/06 01:25:20;;;;;;;;;;;;;;;17.14;57.01;99265.86;1698060;83;20109;-49
2022/06/06 01:28:01;;;;;;;;;;;;;;;17.11;57.62;99263.45;1706484;83;20418;-51
2022/06/06 01:30:33;;;;;;;;;;;;;;;17.10;58.07;99259.58;1697233;83;20117;-43
2022/06/06 01:33:02;;;;;;;;;;;;;;;17.05;58.28;99256.00;1698699;83;20208;-48
2022/06/06 01:35:34;;;;;;;;;;;;;;;17.03;58.24;99251.30;1694195;84;20161;-48
2022/06/06 01:38:00;;;;;;;;;;;;;;;17.02;57.69;99249.11;1692397;84;20117;-52
2022/06/06 01:40:29;;;;;;;;;;;;;;;16.99;58.33;99252.50;1697271;83;20105;-48
2022/06/06 01:43:10;;;;;;;;;;;;;;;16.96;58.76;99246.13;1704986;83;20265;-49
2022/06/06 01:45:51;;;;;;;;;;;;;;;16.95;58.50;99242.61;1667296;83;20121;-45
2022/06/06 01:48:23;;;;;;;;;;;;;;;16.92;58.13;99249.99;1708720;83;20100;-50
2022/06/06 01:50:50;;;;;;;;;;;;;;;16.90;58.67;99246.16;1694219;84;20438;-49
2022/06/06 01:53:20;;;;;;;;;;;;;;;16.83;58.85;99244.48;1694136;84;20405;-44
2022/06/06 01:55:48;;;;;;;;;;;;;;;16.83;59.11;99248.95;1693855;83;20129;-45
2022/06/06 01:58:20;;;;;;;;;;;;;;;16.80;59.07;99246.02;1710174;83;20426;-49
2022/06/06 02:00:46;;;;;;;;;;;;;;;16.78;59.46;99249.29;1710543;83;20188;-50
2022/06/06 02:03:12;;;;;;;;;;;;;;;16.75;59.62;99246.87;1715664;83;20109;-51
2022/06/06 02:05:38;;;;;;;;;;;;;;;16.77;60.16;99248.08;1716670;83;20121;-45
2022/06/06 02:08:04;;;;;;;;;;;;;;;16.75;60.16;99256.66;1707986;83;20108;-53
2022/06/06 02:10:29;;;;;;;;;;;;;;;16.70;60.25;99254.40;1695442;83;20111;-50
2022/06/06 02:12:55;;;;;;;;;;;;;;;16.68;60.45;99246.55;1698764;83;20142;-47
2022/06/06 02:15:25;;;;;;;;;;;;;;;16.70;60.07;99249.09;1698923;83;20140;-48
2022/06/06 02:17:52;;;;;;;;;;;;;;;16.67;60.58;99248.00;1717802;83;20117;-53
2022/06/06 02:20:20;;;;;;;;;;;;;;;16.68;59.63;99253.66;1697109;83;20117;-52
2022/06/06 02:22:45;;;;;;;;;;;;;;;16.68;60.24;99249.20;1706239;83;20128;-45
2022/06/06 02:25:12;;;;;;;;;;;;;;;16.65;59.54;99249.94;1714713;83;20112;-47
2022/06/06 02:27:38;;;;;;;;;;;;;;;16.67;59.88;99249.33;1701909;83;20410;-49
2022/06/06 02:30:06;;;;;;;;;;;;;;;16.66;60.53;99249.81;1713744;83;20409;-45
2022/06/06 02:32:32;;;;;;;;;;;;;;;16.69;59.79;99250.88;1708068;83;20146;-50
2022/06/06 02:34:58;;;;;;;;;;;;;;;16.68;60.29;99252.32;1716262;83;20185;-42
2022/06/06 02:37:23;;;;;;;;;;;;;;;16.67;60.35;99251.98;1705410;83;20105;-53
2022/06/06 02:39:49;;;;;;;;;;;;;;;16.68;60.18;99249.67;1720603;83;20105;-48
2022/06/06 02:42:15;;;;;;;;;;;;;;;16.67;60.72;99249.33;1679303;79;20128;-51
2022/06/06 02:44:40;;;;;;;;;;;;;;;16.68;60.43;99247.02;1666451;85;20432;-53
2022/06/06 02:47:06;;;;;;;;;;;;;;;16.67;60.48;99251.98;1671648;84;20153;-45
2022/06/06 02:49:33;;;;;;;;;;;;;;;16.67;59.85;99251.98;1671340;84;20112;-51
2022/06/06 02:52:04;;;;;;;;;;;;;;;16.65;60.71;99252.09;1663818;85;20344;-51
2022/06/06 02:54:30;;;;;;;;;;;;;;;16.62;61.10;99247.03;1672182;84;20487;-49
2022/06/06 02:56:58;;;;;;;;;;;;;;;16.63;60.94;99239.44;1668806;84;20139;-55
2022/06/06 02:59:25;;;;;;;;;;;;;;;16.60;60.63;99238.35;1676874;84;20428;-53
2022/06/06 03:01:51;;;;;;;;;;;;;;;16.64;60.17;99241.60;1663679;84;20404;-47
2022/06/06 03:04:18;;;;;;;;;;;;;;;16.65;61.54;99244.63;1683359;84;20103;-50
2022/06/06 03:07:07;;;;;;;;;;;;;;;16.66;61.01;99246.30;1675666;85;20108;-50
2022/06/06 03:09:39;;;;;;;;;;;;;;;16.67;61.19;99256.80;1673889;84;20140;-52
2022/06/06 03:12:17;;;;;;;;;;;;;;;16.70;60.95;99259.22;1657785;85;20195;-41
2022/06/06 03:14:52;;;;;;;;;;;;;;;16.71;60.50;99253.41;1660438;85;20493;-47
2022/06/06 03:20:54;;;;;;;;;;;;;;;16.72;61.09;99259.55;1678012;85;20140;-50
2022/06/06 03:23:35;;;;;;;;;;;;;;;16.71;61.07;99254.73;1671044;85;20111;-50
2022/06/06 03:26:19;;;;;;;;;;;;;;;16.75;61.23;99264.63;1683278;84;20129;-50
2022/06/06 03:29:05;;;;;;;;;;;;;;;16.78;60.65;99255.09;1682054;85;20120;-47
2022/06/06 03:31:53;;;;;;;;;;;;;;;16.75;60.67;99246.87;1683118;85;20469;-50
2022/06/06 03:34:28;;;;;;;;;;;;;;;16.75;61.05;99249.53;1686264;85;20116;-52
2022/06/06 03:37:18;;;;;;;;;;;;;;;16.78;61.10;99249.29;1685774;84;20499;-46
2022/06/06 03:39:56;;;;;;;;;;;;;;;16.79;61.08;99249.66;1679924;85;20112;-47
2022/06/06 03:42:28;;;;;;;;;;;;;;;16.81;60.56;99252.20;1671508;85;20112;-47
2022/06/06 03:45:03;;;;;;;;;;;;;;;16.82;60.55;99248.06;1674566;85;20103;-47
2022/06/06 03:47:48;;;;;;;;;;;;;;;16.87;60.06;99257.86;1681671;84;20530;-53
2022/06/06 03:50:36;;;;;;;;;;;;;;;16.84;60.88;99250.62;1685219;85;20119;-51
2022/06/06 03:53:05;;;;;;;;;;;;;;;16.84;60.46;99251.95;1676229;85;20156;-47
2022/06/06 03:55:37;;;;;;;;;;;;;;;16.88;60.35;99256.91;1681087;85;20445;-56
2022/06/06 03:58:04;;;;;;;;;;;;;;;16.92;60.32;99255.30;1658214;84;20120;-46
2022/06/06 04:00:32;;;;;;;;;;;;;;;16.95;60.29;99255.06;1682425;85;20428;-54
2022/06/06 04:02:59;;;;;;;;;;;;;;;16.95;60.16;99251.08;1683465;85;20140;-50
2022/06/06 04:05:24;;;;;;;;;;;;;;;16.97;59.87;99251.33;1683806;84;20119;-48
2022/06/06 04:07:50;;;;;;;;;;;;;;;16.99;60.02;99256.48;1681994;84;20120;-51
2022/06/06 04:10:16;;;;;;;;;;;;;;;16.99;60.85;99263.99;1676808;83;20120;-50
2022/06/06 04:13:17;;;;;;;;;;;;;;;16.98;60.14;99264.11;1682893;85;20111;-47
2022/06/06 04:16:13;;;;;;;;;;;;;;;17.03;58.61;99267.23;1683568;85;20139;-48
2022/06/06 04:18:51;;;;;;;;;;;;;;;17.02;60.13;99266.38;1679407;85;20555;-48
2022/06/06 04:21:23;;;;;;;;;;;;;;;17.06;59.92;99269.63;1653455;85;20111;-55
2022/06/06 04:23:58;;;;;;;;;;;;;;;17.10;59.63;99270.21;1683924;85;20120;-43
2022/06/06 04:26:27;;;;;;;;;;;;;;;17.12;59.39;99273.12;1687887;85;20120;-52
2022/06/06 04:29:00;;;;;;;;;;;;;;;17.12;59.79;99275.78;1669739;85;20144;-47
2022/06/06 04:31:32;;;;;;;;;;;;;;;17.15;59.73;99272.84;1685381;84;20103;-53
2022/06/06 04:34:13;;;;;;;;;;;;;;;17.11;60.04;99270.09;1682662;85;20104;-44
2022/06/06 04:36:48;;;;;;;;;;;;;;;17.12;60.18;99257.17;1687352;83;20119;-46
2022/06/06 04:39:43;;;;;;;;;;;;;;;17.16;59.71;99253.28;1682449;85;20112;-44
2022/06/06 04:42:18;;;;;;;;;;;;;;;17.17;59.56;99251.00;1679800;84;20123;-52
2022/06/06 04:44:57;;;;;;;;;;;;;;;17.18;59.64;99255.82;1683175;85;20186;-47
2022/06/06 04:47:37;;;;;;;;;;;;;;;17.19;60.29;99267.66;1684241;85;20148;-51
2022/06/06 04:50:05;;;;;;;;;;;;;;;17.24;59.76;99271.24;1687350;83;20143;-49
2022/06/06 04:52:33;;;;;;;;;;;;;;;17.26;60.01;99270.63;1676302;85;20428;-52
2022/06/06 04:55:01;;;;;;;;;;;;;;;17.30;59.50;99273.88;1685975;83;20104;-49
2022/06/06 04:57:27;;;;;;;;;;;;;;;17.30;59.67;99272.08;1674748;83;20154;-52
2022/06/06 04:59:55;;;;;;;;;;;;;;;17.33;59.50;99273.62;1644565;86;20134;-44
2022/06/06 05:02:21;;;;;;;;;;;;;;;17.30;59.77;99273.88;1643061;85;20560;-54
2022/06/06 05:04:47;;;;;;;;;;;;;;;17.33;59.71;99278.94;1632977;86;20115;-50
2022/06/06 05:07:41;;;;;;;;;;;;;;;17.35;59.60;99272.51;1649664;86;20531;-54
2022/06/06 05:10:27;;;;;;;;;;;;;;;17.38;59.72;99276.75;1643131;86;20447;-44
2022/06/06 05:13:14;;;;;;;;;;;;;;;17.41;59.49;99283.14;1655669;86;20112;-54
2022/06/06 05:15:53;;;;;;;;;;;;;;;17.44;59.30;99275.75;1650346;85;20126;-52
2022/06/06 05:18:37;;;;;;;;;;;;;;;17.50;59.51;99280.17;1662776;85;20198;-48
2022/06/06 05:21:21;;;;;;;;;;;;;;;17.60;59.09;99277.94;1647847;85;20120;-54
2022/06/06 05:23:59;;;;;;;;;;;;;;;17.68;58.73;99269.30;1647655;85;20191;-46
2022/06/06 05:26:32;;;;;;;;;;;;;;;17.73;58.40;99270.25;1625617;86;20114;-51
2022/06/06 05:29:07;;;;;;;;;;;;;;;17.82;58.52;99272.13;1638909;86;20383;-49
2022/06/06 05:31:54;;;;;;;;;;;;;;;17.92;57.80;99269.06;1649541;85;20113;-51
2022/06/06 05:34:41;;;;;;;;;;;;;;;17.99;57.96;99272.89;1651521;85;20419;-47
2022/06/06 05:37:37;;;;;;;;;;;;;;;18.08;57.64;99269.05;1660225;85;20142;-50
2022/06/06 05:40:22;;;;;;;;;;;;;;;18.17;57.52;99269.12;1659226;86;20126;-55
2022/06/06 05:43:15;;;;;;;;;;;;;;;18.26;57.16;99266.61;1660742;86;20399;-51
2022/06/06 05:45:47;;;;;;;;;;;;;;;18.33;57.52;99268.59;1642852;86;20127;-53
2022/06/06 05:48:33;;;;;;;;;;;;;;;18.35;57.34;99271.95;1654407;85;20166;-52
2022/06/06 05:51:05;;;;;;;;;;;;;;;18.44;57.51;99261.48;1654257;86;20131;-48
2022/06/06 05:53:47;;;;;;;;;;;;;;;18.50;57.23;99256.94;1652202;86;20432;-51
2022/06/06 05:56:37;;;;;;;;;;;;;;;18.58;57.09;99246.46;1645165;85;20118;-49
2022/06/06 05:59:23;;;;;;;;;;;;;;;18.62;56.69;99246.53;1660734;85;20123;-49
2022/06/06 06:02:01;;;;;;;;;;;;;;;18.73;56.56;99245.07;1630228;86;20704;-53
2022/06/06 06:04:40;;;;;;;;;;;;;;;18.85;55.62;99249.00;1658425;85;20126;-45
2022/06/06 06:07:24;;;;;;;;;;;;;;;18.93;55.83;99250.45;1634889;85;20109;-54
2022/06/06 06:10:11;;;;;;;;;;;;;;;19.01;56.15;99248.42;1647192;86;20113;-52
2022/06/06 06:12:49;;;;;;;;;;;;;;;19.08;56.44;99242.41;1658152;86;20113;-53
2022/06/06 06:15:25;;;;;;;;;;;;;;;19.20;56.17;99236.94;1634705;86;20123;-47
2022/06/06 06:17:53;;;;;;;;;;;;;;;19.28;56.04;99244.58;1635899;86;20631;-50
2022/06/06 06:20:20;;;;;;;;;;;;;;;19.37;55.61;99239.73;1644425;86;20114;-52
2022/06/06 06:22:59;;;;;;;;;;;;;;;19.46;55.46;99239.84;1659302;86;20698;-48
2022/06/06 06:25:26;;;;;;;;;;;;;;;19.54;55.25;99254.14;1655244;86;20126;-48
2022/06/06 06:27:58;;;;;;;;;;;;;;;19.63;55.08;99248.45;1651731;85;20124;-51
2022/06/06 06:30:26;;;;;;;;;;;;;;;19.70;55.16;99248.22;1638342;85;20439;-47
2022/06/06 06:33:24;;;;;;;;;;;;;;;19.74;55.06;99238.13;1631821;86;20142;-53
2022/06/06 06:35:56;;;;;;;;;;;;;;;19.75;54.75;99241.13;1647930;85;20115;-54
2022/06/06 06:38:40;;;;;;;;;;;;;;;19.85;54.89;99240.63;1666992;85;20114;-53
2022/06/06 06:41:18;;;;;;;;;;;;;;;19.90;54.84;99239.70;1660131;85;20162;-50
2022/06/06 06:43:47;;;;;;;;;;;;;;;19.98;54.53;99244.80;1655382;85;20131;-55
2022/06/06 06:46:16;;;;;;;;;;;;;;;20.03;54.49;99238.50;1649671;86;20114;-53
2022/06/06 06:48:45;;;;;;;;;;;;;;;20.06;54.97;99240.89;1640469;86;20415;-46
2022/06/06 06:51:26;;;;;;;;;;;;;;;20.10;54.14;99244.47;1641203;86;20113;-50
2022/06/06 06:53:55;;;;;;;;;;;;;;;20.16;53.80;99244.37;1655505;86;20613;-54
2022/06/06 06:56:29;;;;;;;;;;;;;;;20.23;54.11;99248.60;1665730;85;20119;-51
2022/06/06 06:59:07;;;;;;;;;;;;;;;20.24;54.68;99244.45;1657780;85;20169;-44
2022/06/06 07:10:48;;;;;;;;;;;;;;;20.26;53.80;99241.14;1642723;85;20134;-51
2022/06/06 07:13:23;;;;;;;;;;;;;;;20.17;53.90;99245.20;1641501;85;20448;-45
2022/06/06 07:15:59;;;;;;;;;;;;;;;20.16;54.14;99248.88;1641721;85;20139;-51
2022/06/06 07:18:27;;;;;;;;;;;;;;;20.18;54.83;99238.89;1661877;85;20115;-51
2022/06/06 07:20:53;;;;;;;;;;;;;;;20.22;53.91;99242.94;1661976;85;20447;-46
2022/06/06 07:23:21;;;;;;;;;;;;;;;20.27;54.10;99248.67;1660618;86;20262;-50
2022/06/06 07:25:50;;;;;;;;;;;;;;;20.35;54.11;99246.09;1658285;86;20120;-52
2022/06/06 07:28:19;;;;;;;;;;;;;;;20.41;54.00;99241.98;1659387;86;20143;-58
2022/06/06 07:31:00;;;;;;;;;;;;;;;20.50;53.73;99235.73;1646395;86;20155;-53
2022/06/06 07:33:45;;;;;;;;;;;;;;;20.56;53.05;99234.33;1648287;85;20176;-48
2022/06/06 07:36:32;;;;;;;;;;;;;;;20.65;52.98;99230.28;1664693;85;20103;-47
2022/06/06 07:39:16;;;;;;;;;;;;;;;20.79;52.80;99226.73;1659642;85;20113;-53
2022/06/06 07:42:04;;;;;;;;;;;;;;;20.86;51.63;99227.80;1664575;86;20119;-44
2022/06/06 07:44:39;;;;;;;;;;;;;;;20.95;51.77;99221.53;1663825;85;20431;-53
2022/06/06 07:47:24;;;;;;;;;;;;;;;20.97;50.67;99225.39;1646849;86;20106;-47
2022/06/06 07:49:54;;;;;;;;;;;;;;;21.07;51.12;99227.50;1658103;85;20555;-52
2022/06/06 07:52:24;;;;;;;;;;;;;;;21.20;51.07;99227.11;1645079;86;20122;-45
2022/06/06 07:55:02;;;;;;;;;;;;;;;21.32;50.63;99220.53;1644431;86;20113;-46
2022/06/06 07:57:49;;;;;;;;;;;;;;;21.44;50.21;99231.80;1650398;84;20235;-50
2022/06/06 08:00:21;;;;;;;;;;;;;;;21.56;49.76;99223.06;1649971;86;20107;-45
2022/06/06 08:02:59;;;;;;;;;;;;;;;21.69;49.39;99222.14;1638347;86;20122;-52
2022/06/06 08:05:34;;;;;;;;;;;;;;;21.81;48.78;99218.67;1637249;86;20121;-49
2022/06/06 08:08:09;;;;;;;;;;;;;;;21.93;47.93;99208.05;1624762;86;20427;-51
2022/06/06 08:10:41;;;;;;;;;;;;;;;22.04;46.21;99208.27;1643492;86;20174;-48
2022/06/06 08:13:27;;;;;;;;;;;;;;;22.13;44.80;99207.80;1642054;86;20216;-49
2022/06/06 08:16:14;;;;;;;;;;;;;;;22.26;46.12;99207.34;1635506;86;20119;-49
2022/06/06 08:19:17;;;;;;;;;;;;;;;22.38;45.02;99206.92;1636527;86;20122;-51
2022/06/06 08:21:46;;;;;;;;;;;;;;;22.51;44.96;99205.63;1649515;86;20158;-46
2022/06/06 08:24:18;;;;;;;;;;;;;;;22.68;44.52;99195.77;1645100;86;20114;-50
2022/06/06 08:26:46;;;;;;;;;;;;;;;22.79;43.30;99200.80;1642392;86;20399;-44
2022/06/06 08:29:12;;;;;;;;;;;;;;;22.94;42.95;99209.88;1654037;86;20195;-49
2022/06/06 08:31:37;;;;;;;;;;;;;;;23.09;43.33;99207.91;1646511;85;20126;-50
2022/06/06 08:34:03;;;;;;;;;;;;;;;23.27;43.36;99206.41;1654445;85;20120;-50
2022/06/06 08:36:52;;;;;;;;;;;;;;;23.34;41.87;99211.42;1634158;86;20121;-50
2022/06/06 08:39:33;;;;;;;;;;;;;;;23.47;41.84;99198.83;1650869;86;20286;-43
2022/06/06 08:42:11;;;;;;;;;;;;;;;23.65;41.15;99200.80;1648953;85;20115;-51
2022/06/06 08:45:04;;;;;;;;;;;;;;;23.82;41.96;99199.45;1658930;85;20430;-48
2022/06/06 08:47:35;;;;;;;;;;;;;;;23.92;39.77;99192.01;1643777;86;20114;-47
2022/06/06 08:53:28;;;;;;;;;;;;;;;24.43;41.31;99193.81;1644668;85;20114;-51
2022/06/06 08:56:03;;;;;;;;;;;;;;;24.57;39.45;99186.86;1651218;86;20130;-47
2022/06/06 08:58:55;;;;;;;;;;;;;;;24.64;39.76;99182.96;1657855;85;20432;-43
2022/06/06 09:01:41;;;;;;;;;;;;;;;24.74;40.33;99188.09;1629366;86;20219;-44
2022/06/06 09:04:22;;;;;;;;;;;;;;;24.82;39.97;99179.47;1648326;84;20114;-46
2022/06/06 09:07:08;;;;;;;;;;;;;;;24.94;38.83;99185.28;1653034;86;20122;-47
2022/06/06 09:09:43;;;;;;;;;;;;;;;25.14;39.76;99187.45;1658929;85;20122;-49
2022/06/06 09:12:22;;;;;;;;;;;;;;;25.27;38.06;99185.03;1657576;85;20122;-46
2022/06/06 09:15:08;;;;;;;;;;;;;;;25.52;39.33;99176.69;1637948;86;20389;-46
2022/06/06 09:17:42;;;;;;;;;;;;;;;25.63;38.21;99181.12;1628783;86;20186;-50
2022/06/06 09:20:18;;;;;;;;;;;;;;;25.86;37.69;99177.50;1652770;86;20159;-43
2022/06/06 09:22:57;;;;;;;;;;;;;;;26.05;38.53;99176.14;1649619;86;20120;-47
2022/06/06 09:25:45;;;;;;;;;;;;;;;26.29;38.21;99164.19;1649210;86;20449;-46
2022/06/06 09:28:29;;;;;;;;;;;;;;;26.60;37.85;99161.73;1661453;85;20406;-47
2022/06/06 09:31:16;;;;;;;;;;;;;;;26.90;37.24;99161.09;1656289;85;20144;-46
2022/06/06 09:34:03;;;;;;;;;;;;;;;27.15;35.59;99160.17;1683658;83;20103;-48
2022/06/06 09:36:38;;;;;;;;;;;;;;;27.55;36.97;99152.38;1689844;83;20123;-48
2022/06/06 09:39:14;;;;;;;;;;;;;;;27.86;33.73;99156.51;1690269;83;20131;-50
2022/06/06 09:41:52;;;;;;;;;;;;;;;28.33;34.63;99153.50;1691035;83;20112;-48
2022/06/06 09:44:25;;;;;;;;;;;;;;;28.93;34.01;99148.75;1687393;83;20550;-46
2022/06/06 09:47:03;;;;;;;;;;;;;;;29.46;31.73;99144.67;1691981;84;20166;-45
2022/06/06 09:49:58;;;;;;;;;;;;;;;29.92;31.32;99147.51;1684458;83;20135;-44
2022/06/06 09:52:30;;;;;;;;;;;;;;;30.21;30.25;99142.06;1690220;85;20167;-47
2022/06/06 10:00:50;;;;;;;;;;;;;;;31.39;29.06;99141.45;1692885;83;20457;-51
2022/06/06 10:03:36;;;;;;;;;;;;;;;31.68;28.05;99140.98;1687338;83;20103;-47
2022/06/06 10:06:20;;;;;;;;;;;;;;;31.64;28.00;99143.33;1690263;85;20166;-46
2022/06/06 10:09:16;;;;;;;;;;;;;;;32.17;28.68;99139.70;1692701;83;20138;-47
2022/06/06 10:11:48;;;;;;;;;;;;;;;32.08;27.15;99137.28;1688935;85;20407;-47
2022/06/06 10:14:26;;;;;;;;;;;;;;;32.61;27.64;99141.72;1689922;83;20360;-47
2022/06/06 10:17:14;;;;;;;;;;;;;;;32.45;26.62;99149.44;1693877;84;20139;-51
2022/06/06 10:19:52;;;;;;;;;;;;;;;33.07;27.71;99142.35;1690322;84;20136;-47
2022/06/06 10:22:37;;;;;;;;;;;;;;;33.32;25.92;99139.13;1689787;83;20119;-49
2022/06/06 10:25:12;;;;;;;;;;;;;;;33.73;26.72;99142.27;1693568;84;20110;-50
2022/06/06 10:28:00;;;;;;;;;;;;;;;33.43;25.73;99139.65;1686552;84;20108;-53
2022/06/06 10:30:49;;;;;;;;;;;;;;;33.64;25.73;99152.67;1690111;84;20111;-45
2022/06/06 10:33:49;;;;;;;;;;;;;;;33.81;26.52;99145.14;1674638;83;20144;-53
2022/06/06 10:36:22;;;;;;;;;;;;;;;34.04;25.47;99143.72;1680801;84;20144;-53
2022/06/06 10:38:57;;;;;;;;;;;;;;;34.02;24.89;99138.22;1678168;84;20623;-51
2022/06/06 10:41:29;;;;;;;;;;;;;;;33.91;25.09;99143.16;1679228;84;20490;-51
2022/06/06 10:44:01;;;;;;;;;;;;;;;33.93;24.84;99136.41;1679337;85;20409;-51
2022/06/06 10:46:42;;;;;;;;;;;;;;;34.14;25.47;99140.89;1659498;84;20112;-51
2022/06/06 10:49:14;;;;;;;;;;;;;;;33.52;25.15;99140.13;1684728;83;20177;-51
2022/06/06 10:51:58;;;;;;;;;;;;;;;33.52;26.02;99136.03;1685546;84;20147;-45
2022/06/06 10:54:44;;;;;;;;;;;;;;;33.38;26.22;99134.93;1666445;84;20115;-48
2022/06/06 10:57:16;;;;;;;;;;;;;;;33.53;25.97;99151.30;1653975;86;20403;-48
2022/06/06 11:00:11;;;;;;;;;;;;;;;33.66;26.38;99138.30;1665958;85;20164;-50
2022/06/06 11:02:56;;;;;;;;;;;;;;;33.68;25.97;99134.52;1670351;85;20322;-50
2022/06/06 11:05:37;;;;;;;;;;;;;;;33.25;26.03;99122.34;1659395;85;20130;-52
2022/06/06 11:08:09;;;;;;;;;;;;;;;33.62;26.08;99134.36;1656692;86;20426;-48
2022/06/06 11:10:38;;;;;;;;;;;;;;;33.79;26.63;99133.11;1662446;84;20698;-48
2022/06/06 11:13:37;;;;;;;;;;;;;;;34.03;25.95;99122.13;1643501;87;20423;-46
2022/06/06 11:16:24;;;;;;;;;;;;;;;33.56;25.97;99123.03;1663209;84;20406;-46
2022/06/06 11:19:06;;;;;;;;;;;;;;;32.60;26.78;99119.63;1658033;86;20276;-47
2022/06/06 11:21:56;;;;;;;;;;;;;;;32.80;27.21;99121.53;1661521;86;20106;-50
2022/06/06 11:24:29;;;;;;;;;;;;;;;33.30;26.22;99121.64;1662583;84;20114;-48
2022/06/06 11:27:10;;;;;;;;;;;;;;;33.76;27.22;99110.40;1662218;84;20113;-50
2022/06/06 11:29:45;;;;;;;;;;;;;;;34.34;27.53;99111.83;1662662;86;20165;-47
2022/06/06 11:32:43;;;;;;;;;;;;;;;34.66;24.90;99114.87;1662247;84;20129;-46
2022/06/06 11:35:15;;;;;;;;;;;;;;;34.77;25.28;99117.27;1662153;86;20142;-51
2022/06/06 11:37:57;;;;;;;;;;;;;;;34.68;25.03;99115.98;1643224;87;20114;-53
2022/06/06 11:40:45;;;;;;;;;;;;;;;33.87;25.16;99118.80;1659700;84;20443;-52
2022/06/06 11:43:48;;;;;;;;;;;;;;;33.43;26.52;99111.03;1651468;86;20114;-45
2022/06/06 11:46:38;;;;;;;;;;;;;;;32.65;27.05;99101.53;1652953;86;20147;-49
2022/06/06 11:49:24;;;;;;;;;;;;;;;31.98;27.86;99111.11;1642255;85;20184;-44
2022/06/06 11:52:02;;;;;;;;;;;;;;;31.90;28.22;99110.09;1654175;86;20520;-54
2022/06/06 11:54:31;;;;;;;;;;;;;;;31.85;28.11;99110.76;1651715;86;20146;-48
2022/06/06 11:57:29;;;;;;;;;;;;;;;32.21;27.38;99098.19;1653887;86;20534;-45
2022/06/06 12:00:05;;;;;;;;;;;;;;;32.78;27.53;99095.08;1653120;86;20139;-47
2022/06/06 12:02:41;;;;;;;;;;;;;;;32.82;27.09;99096.77;1652212;86;20407;-48
2022/06/06 12:05:25;;;;;;;;;;;;;;;32.73;27.41;99096.30;1653121;86;20106;-46
2022/06/06 12:07:58;;;;;;;;;;;;;;;32.49;27.70;99096.73;1660910;84;20104;-45
2022/06/06 12:10:38;;;;;;;;;;;;;;;32.03;27.78;99102.28;1658183;84;20118;-46
2022/06/06 12:13:15;;;;;;;;;;;;;;;31.29;28.85;99099.04;1673063;84;20124;-51
2022/06/06 12:16:03;;;;;;;;;;;;;;;31.21;29.43;99096.59;1675433;84;20126;-48
2022/06/06 12:18:46;;;;;;;;;;;;;;;30.85;29.97;99096.78;1651100;84;20111;-45
2022/06/06 12:21:22;;;;;;;;;;;;;;;30.72;30.30;99095.55;1653263;85;20147;-52
2022/06/06 12:23:58;;;;;;;;;;;;;;;30.46;30.35;99081.13;1640909;85;20118;-48
2022/06/06 12:26:44;;;;;;;;;;;;;;;30.32;31.02;99080.34;1634631;85;20114;-46
2022/06/06 12:29:30;;;;;;;;;;;;;;;30.04;31.16;99076.66;1648415;85;20113;-47
2022/06/06 12:32:09;;;;;;;;;;;;;;;29.91;31.85;99082.12;1652202;85;20181;-45
2022/06/06 12:34:41;;;;;;;;;;;;;;;29.79;32.65;99076.03;1649683;84;20193;-44
2022/06/06 12:37:19;;;;;;;;;;;;;;;29.75;32.64;99074.81;1656328;85;20138;-49
2022/06/06 12:40:10;;;;;;;;;;;;;;;29.70;32.42;99066.98;1651461;84;20192;-47
2022/06/06 12:43:07;;;;;;;;;;;;;;;29.75;32.35;99069.92;1647196;84;20151;-49
2022/06/06 12:45:41;;;;;;;;;;;;;;;29.70;32.32;99064.27;1660900;85;20122;-45
2022/06/06 12:48:22;;;;;;;;;;;;;;;29.69;32.53;99064.80;1649302;84;20122;-46
2022/06/06 12:51:12;;;;;;;;;;;;;;;29.85;32.41;99053.50;1662188;85;20135;-48
2022/06/06 12:53:58;;;;;;;;;;;;;;;29.94;32.45;99053.23;1674244;84;20135;-47
2022/06/06 12:56:38;;;;;;;;;;;;;;;29.77;32.84;99060.52;1650321;85;20122;-47
2022/06/06 12:59:12;;;;;;;;;;;;;;;29.85;32.75;99062.14;1645468;86;20185;-45
2022/06/06 13:02:05;;;;;;;;;;;;;;;29.74;33.17;99052.80;1653000;86;20158;-48
2022/06/06 13:04:49;;;;;;;;;;;;;;;29.50;33.26;99047.56;1661531;86;20137;-49
2022/06/06 13:07:35;;;;;;;;;;;;;;;29.42;33.65;99054.05;1647997;86;20108;-47
2022/06/06 13:10:07;;;;;;;;;;;;;;;29.18;33.96;99052.02;1645115;86;20114;-46
2022/06/06 13:12:48;;;;;;;;;;;;;;;29.27;35.52;99050.75;1661620;86;20122;-47
2022/06/06 13:15:21;;;;;;;;;;;;;;;29.30;35.54;99048.98;1662743;86;20170;-51
2022/06/06 13:17:50;;;;;;;;;;;;;;;29.33;33.96;99053.16;1659715;86;20477;-46
2022/06/06 13:20:39;;;;;;;;;;;;;;;29.26;34.64;99047.74;1661941;86;20637;-46
2022/06/06 13:23:15;;;;;;;;;;;;;;;29.12;34.37;99046.08;1661751;86;20136;-43
2022/06/06 13:25:53;;;;;;;;;;;;;;;29.03;34.65;99046.28;1662554;86;20177;-45
2022/06/06 13:28:23;;;;;;;;;;;;;;;28.78;34.50;99042.56;1661422;86;20430;-48
2022/06/06 13:30:52;;;;;;;;;;;;;;;28.67;35.02;99035.41;1651423;86;20113;-45
2022/06/06 13:33:45;;;;;;;;;;;;;;;28.52;35.68;99038.80;1642228;86;20165;-46
2022/06/06 13:36:31;;;;;;;;;;;;;;;28.64;35.95;99039.05;1641871;86;20135;-44
2022/06/06 13:39:21;;;;;;;;;;;;;;;28.70;35.79;99041.73;1645696;86;20536;-48
2022/06/06 13:41:56;;;;;;;;;;;;;;;28.68;36.01;99043.82;1653436;86;20114;-47
2022/06/06 13:44:37;;;;;;;;;;;;;;;28.78;35.91;99042.07;1646043;86;20105;-49
2022/06/06 13:47:07;;;;;;;;;;;;;;;28.88;35.40;99041.63;1662294;86;20121;-47
2022/06/06 13:49:49;;;;;;;;;;;;;;;28.66;35.73;99039.14;1661583;86;20145;-47
2022/06/06 13:52:32;;;;;;;;;;;;;;;28.67;35.77;99043.53;1662287;86;20122;-48
2022/06/06 13:55:18;;;;;;;;;;;;;;;28.67;36.37;99043.53;1661601;86;20721;-43
2022/06/06 13:57:53;;;;;;;;;;;;;;;28.54;35.18;99036.74;1662383;86;20421;-44
2022/06/06 14:00:25;;;;;;;;;;;;;;;28.59;35.77;99040.19;1660193;86;20145;-47
2022/06/06 14:03:10;;;;;;;;;;;;;;;28.49;35.90;99038.70;1662508;86;20137;-44